METAR Data
IDs: Format: Raw Decoded Include TAF

Data at: 0329 UTC 24 Jun 2021

Region: TOP
KATL 240252Z 10008KT 10SM FEW070 FEW250 24/17 A3018 RMK AO2 SLP209 T02390167 53015

KBOS 240254Z 15006KT 10SM FEW200 16/12 A3029 RMK AO2 SLP256 T01610122 51021

KBWI 240254Z 00000KT 10SM FEW250 16/11 A3029 RMK AO2 SLP258 T01610111 51017

KCLE 240251Z 17008KT 10SM FEW095 SCT250 19/10 A3017 RMK AO2 SLP228 T01890100 53004 $

KCLT 240252Z 10007KT 10SM FEW080 FEW250 23/13 A3025 RMK AO2 SLP235 T02330133 53014

KCVG 240252Z 14008KT 10SM CLR 19/11 A3015 RMK AO2 SLP204 T01890106 55001

KDCA 240252Z 17003KT 10SM FEW180 SCT250 19/10 A3031 RMK AO2 SLP261 T01890100 51019

KDEN 240253Z 31012KT 10SM FEW120 BKN160 BKN220 29/03 A2998 RMK AO2 SLP051 60000 T02890028 51013

KDFW 240253Z 15012KT 10SM CLR 31/23 A2990 RMK AO2 SLP117 T03110228 53008

KDTW 240253Z 16007KT 10SM FEW075 SCT110 BKN180 21/11 A3014 RMK AO2 SLP203 T02060111 53002

KEWR 240251Z 18009KT 10SM FEW080 FEW250 20/11 A3029 RMK AO2 SLP255 T02000106 51020 $

KFLL 240253Z 08012KT 10SM FEW024 BKN100 BKN150 26/23 A3011 RMK AO2 SLP195 T02610233 50000

KIAD 240252Z 15004KT 10SM FEW250 17/10 A3029 RMK AO2 SLP257 T01670100 51017

KIAH 240253Z 17010KT 10SM FEW020 FEW250 29/24 A2998 RMK AO2 SLP149 T02890239 53012

KJFK 240251Z 20009KT 10SM FEW250 18/12 A3030 RMK AO2 SLP260 T01780122 51018

KLAS 240256Z 22003KT 10SM FEW100 SCT120 BKN200 31/08 A2994 RMK AO2 SLP108 T03060083 56009

KLAX 240253Z 25010KT 10SM FEW012 FEW100 SCT150 17/14 A2997 RMK AO2 SLP145 T01720144 53008

KLGA 240251Z 18008KT 10SM FEW250 20/09 A3028 RMK AO2 SLP253 T02000094 51017

KMCO 240253Z 14005KT 10SM FEW015 SCT100 OVC190 24/22 A3011 RMK AO2 SLP194 60013 T02390222 58008

KMDW 240253Z 18014G25KT 10SM FEW090 23/11 A3000 RMK AO2 SLP152 T02330111 53008

KMEM 240254Z 15005KT 10SM CLR 26/17 A3007 RMK AO2 SLP178 T02610167 53006 $

KMIA 240253Z 04007KT 10SM FEW015 FEW025 SCT150 OVC250 27/23 A3011 RMK AO2 SLP197 CB DSIPTD NE-E T02720228 53002 $

KMSP 240253Z 17010KT 10SM SCT250 28/18 A2971 RMK AO2 SLP054 T02830178 53001

KORD 240251Z 19011G23KT 10SM FEW075 23/12 A2999 RMK AO2 PK WND 20027/0209 SLP153 T02330117 53009

KPDX 240253Z 33008KT 10SM FEW250 26/11 A2991 RMK AO2 SLP128 T02560111 53007

KPHL 240254Z 17005KT 10SM SCT280 18/11 A3030 RMK AO2 SLP261 T01780111 53022

KPHX 240251Z 10005KT 10SM FEW110 SCT130 BKN150 BKN230 31/17 A2985 RMK AO2 SLP088 T03060172 56004

KPIT 240251Z 00000KT 10SM FEW100 BKN180 BKN240 19/09 A3024 RMK AO2 SLP244 T01890089 52008

KSAN 240251Z 32006KT 10SM BKN013 BKN140 20/15 A3000 RMK AO2 SLP158 T02000150 53014

KSEA 240253Z 28005KT 10SM FEW250 23/12 A2996 RMK AO2 SLP148 T02280122 53001

KSFO 240256Z 27014KT 10SM FEW008 SCT017 19/12 A2995 RMK AO2 SLP142 T01890117 53008

KSLC 240254Z 36007KT 10SM BKN160 BKN200 29/05 A2991 RMK AO2 SLP064 VIRGA TCU DSNT SE T02890050 53003

KSTL 240251Z 17012KT 10SM FEW080 FEW120 FEW250 26/11 A3001 RMK AO2 SLP152 OCNL LTGICCC DSNT NW CB DSNT NW MOV SE T02560111 53005

KTPA 240253Z 22005KT 10SM FEW026 SCT090 BKN210 24/22 A3013 RMK AO2 LTG DSNT SE-W TSE18 SLP202 OCNL LTGIC DSNT SW-W CB DSNT SW-W T02440222 50008 $